sensor_id;sensor_type;location;lat;lon;timestamp;P1;durP1;ratioP1;P2;durP2;ratioP2
71125;SDS011;58785;55.566;38.058;2022-08-01T00:01:49;22.70;;;9.60;;
71125;SDS011;58785;55.566;38.058;2022-08-01T00:04:15;18.03;;;9.67;;
71125;SDS011;58785;55.566;38.058;2022-08-01T00:06:41;16.67;;;9.43;;
71125;SDS011;58785;55.566;38.058;2022-08-01T00:09:06;18.80;;;9.80;;
71125;SDS011;58785;55.566;38.058;2022-08-01T00:11:32;17.50;;;9.67;;
71125;SDS011;58785;55.566;38.058;2022-08-01T00:13:57;19.70;;;10.18;;
71125;SDS011;58785;55.566;38.058;2022-08-01T00:16:23;20.97;;;10.40;;
71125;SDS011;58785;55.566;38.058;2022-08-01T00:18:52;20.00;;;9.77;;
71125;SDS011;58785;55.566;38.058;2022-08-01T00:21:17;19.70;;;9.90;;
71125;SDS011;58785;55.566;38.058;2022-08-01T00:23:43;16.30;;;9.73;;
71125;SDS011;58785;55.566;38.058;2022-08-01T00:26:10;18.90;;;10.18;;
71125;SDS011;58785;55.566;38.058;2022-08-01T00:28:37;20.35;;;10.13;;
71125;SDS011;58785;55.566;38.058;2022-08-01T00:31:02;23.13;;;10.60;;
71125;SDS011;58785;55.566;38.058;2022-08-01T00:33:28;22.33;;;9.90;;
71125;SDS011;58785;55.566;38.058;2022-08-01T00:35:53;19.60;;;9.95;;
71125;SDS011;58785;55.566;38.058;2022-08-01T00:38:20;17.08;;;9.65;;
71125;SDS011;58785;55.566;38.058;2022-08-01T00:40:45;18.90;;;9.60;;
71125;SDS011;58785;55.566;38.058;2022-08-01T00:43:11;19.02;;;10.40;;
71125;SDS011;58785;55.566;38.058;2022-08-01T00:45:37;21.57;;;9.53;;
71125;SDS011;58785;55.566;38.058;2022-08-01T00:48:02;19.97;;;9.77;;
71125;SDS011;58785;55.566;38.058;2022-08-01T00:50:28;18.30;;;9.83;;
71125;SDS011;58785;55.566;38.058;2022-08-01T00:52:54;20.33;;;10.77;;
71125;SDS011;58785;55.566;38.058;2022-08-01T00:55:20;18.90;;;9.43;;
71125;SDS011;58785;55.566;38.058;2022-08-01T00:57:46;17.92;;;10.13;;
71125;SDS011;58785;55.566;38.058;2022-08-01T01:00:13;15.73;;;9.52;;
71125;SDS011;58785;55.566;38.058;2022-08-01T01:02:39;19.97;;;9.93;;
71125;SDS011;58785;55.566;38.058;2022-08-01T01:05:05;18.27;;;9.73;;
71125;SDS011;58785;55.566;38.058;2022-08-01T01:12:43;19.80;;;10.57;;
71125;SDS011;58785;55.566;38.058;2022-08-01T01:20:43;20.50;;;10.52;;
71125;SDS011;58785;55.566;38.058;2022-08-01T01:23:14;24.42;;;10.82;;
71125;SDS011;58785;55.566;38.058;2022-08-01T01:29:04;18.88;;;10.45;;
71125;SDS011;58785;55.566;38.058;2022-08-01T01:31:36;25.10;;;10.20;;
71125;SDS011;58785;55.566;38.058;2022-08-01T01:34:09;20.10;;;10.20;;
71125;SDS011;58785;55.566;38.058;2022-08-01T01:36:38;20.02;;;10.10;;
71125;SDS011;58785;55.566;38.058;2022-08-01T01:39:05;23.47;;;10.33;;
71125;SDS011;58785;55.566;38.058;2022-08-01T01:41:32;22.92;;;10.98;;
71125;SDS011;58785;55.566;38.058;2022-08-01T01:44:00;18.83;;;10.05;;
71125;SDS011;58785;55.566;38.058;2022-08-01T01:46:26;22.75;;;9.90;;
71125;SDS011;58785;55.566;38.058;2022-08-01T01:48:56;18.58;;;9.88;;
71125;SDS011;58785;55.566;38.058;2022-08-01T01:51:24;18.90;;;9.83;;
71125;SDS011;58785;55.566;38.058;2022-08-01T01:53:52;18.40;;;10.07;;
71125;SDS011;58785;55.566;38.058;2022-08-01T01:56:19;23.58;;;9.80;;
71125;SDS011;58785;55.566;38.058;2022-08-01T01:58:48;22.70;;;10.25;;
71125;SDS011;58785;55.566;38.058;2022-08-01T02:01:20;17.90;;;10.25;;
71125;SDS011;58785;55.566;38.058;2022-08-01T02:03:49;22.47;;;10.70;;
71125;SDS011;58785;55.566;38.058;2022-08-01T02:06:16;26.73;;;11.35;;
71125;SDS011;58785;55.566;38.058;2022-08-01T02:08:42;18.75;;;10.30;;
71125;SDS011;58785;55.566;38.058;2022-08-01T02:11:10;20.17;;;10.50;;
71125;SDS011;58785;55.566;38.058;2022-08-01T02:13:52;19.55;;;10.45;;
71125;SDS011;58785;55.566;38.058;2022-08-01T02:16:22;19.00;;;10.63;;
71125;SDS011;58785;55.566;38.058;2022-08-01T02:18:50;19.17;;;10.23;;
71125;SDS011;58785;55.566;38.058;2022-08-01T02:21:28;21.20;;;10.27;;
71125;SDS011;58785;55.566;38.058;2022-08-01T02:24:01;19.93;;;10.83;;
71125;SDS011;58785;55.566;38.058;2022-08-01T02:26:33;17.67;;;10.75;;
71125;SDS011;58785;55.566;38.058;2022-08-01T02:29:03;20.95;;;10.80;;
71125;SDS011;58785;55.566;38.058;2022-08-01T02:31:34;20.67;;;11.60;;
71125;SDS011;58785;55.566;38.058;2022-08-01T02:34:04;19.08;;;10.68;;
71125;SDS011;58785;55.566;38.058;2022-08-01T02:36:36;19.27;;;10.10;;
71125;SDS011;58785;55.566;38.058;2022-08-01T02:39:06;19.67;;;10.77;;
71125;SDS011;58785;55.566;38.058;2022-08-01T02:41:36;19.50;;;10.93;;
71125;SDS011;58785;55.566;38.058;2022-08-01T02:44:05;24.45;;;11.55;;
71125;SDS011;58785;55.566;38.058;2022-08-01T02:46:39;19.02;;;11.10;;
71125;SDS011;58785;55.566;38.058;2022-08-01T02:49:09;19.20;;;10.90;;
71125;SDS011;58785;55.566;38.058;2022-08-01T02:51:38;16.45;;;9.75;;
71125;SDS011;58785;55.566;38.058;2022-08-01T02:54:06;16.05;;;11.35;;
71125;SDS011;58785;55.566;38.058;2022-08-01T02:56:33;22.30;;;10.13;;
71125;SDS011;58785;55.566;38.058;2022-08-01T02:59:01;17.08;;;9.23;;
71125;SDS011;58785;55.566;38.058;2022-08-01T03:01:33;16.97;;;8.93;;
71125;SDS011;58785;55.566;38.058;2022-08-01T03:04:01;16.58;;;9.30;;
71125;SDS011;58785;55.566;38.058;2022-08-01T03:06:30;14.93;;;9.05;;
71125;SDS011;58785;55.566;38.058;2022-08-01T03:08:57;17.10;;;8.65;;
71125;SDS011;58785;55.566;38.058;2022-08-01T03:11:25;18.25;;;9.88;;
71125;SDS011;58785;55.566;38.058;2022-08-01T03:13:53;18.77;;;9.73;;
71125;SDS011;58785;55.566;38.058;2022-08-01T03:16:22;19.05;;;10.50;;
71125;SDS011;58785;55.566;38.058;2022-08-01T03:18:52;21.80;;;11.18;;
71125;SDS011;58785;55.566;38.058;2022-08-01T03:21:20;22.55;;;10.80;;
71125;SDS011;58785;55.566;38.058;2022-08-01T03:23:49;17.55;;;10.25;;
71125;SDS011;58785;55.566;38.058;2022-08-01T03:26:17;19.20;;;9.77;;
71125;SDS011;58785;55.566;38.058;2022-08-01T03:28:44;19.77;;;10.20;;
71125;SDS011;58785;55.566;38.058;2022-08-01T03:31:12;20.45;;;10.80;;
71125;SDS011;58785;55.566;38.058;2022-08-01T03:33:39;21.60;;;11.38;;
71125;SDS011;58785;55.566;38.058;2022-08-01T03:36:05;21.92;;;10.95;;
71125;SDS011;58785;55.566;38.058;2022-08-01T03:38:34;17.73;;;10.63;;
71125;SDS011;58785;55.566;38.058;2022-08-01T03:41:15;18.35;;;10.75;;
71125;SDS011;58785;55.566;38.058;2022-08-01T03:43:55;23.30;;;13.93;;
71125;SDS011;58785;55.566;38.058;2022-08-01T03:46:29;26.65;;;15.55;;
71125;SDS011;58785;55.566;38.058;2022-08-01T03:48:59;18.92;;;13.00;;
71125;SDS011;58785;55.566;38.058;2022-08-01T03:51:29;20.30;;;12.87;;
71125;SDS011;58785;55.566;38.058;2022-08-01T03:53:56;20.50;;;10.97;;
71125;SDS011;58785;55.566;38.058;2022-08-01T03:56:25;19.17;;;10.70;;
71125;SDS011;58785;55.566;38.058;2022-08-01T03:58:52;14.80;;;9.40;;
71125;SDS011;58785;55.566;38.058;2022-08-01T04:01:18;17.15;;;10.45;;
71125;SDS011;58785;55.566;38.058;2022-08-01T04:03:44;16.93;;;9.57;;
71125;SDS011;58785;55.566;38.058;2022-08-01T04:06:10;13.25;;;8.48;;
71125;SDS011;58785;55.566;38.058;2022-08-01T04:08:39;15.95;;;9.50;;
71125;SDS011;58785;55.566;38.058;2022-08-01T04:11:07;13.77;;;8.52;;
71125;SDS011;58785;55.566;38.058;2022-08-01T04:13:34;14.25;;;8.52;;
71125;SDS011;58785;55.566;38.058;2022-08-01T04:15:59;12.83;;;8.60;;
71125;SDS011;58785;55.566;38.058;2022-08-01T04:18:25;16.27;;;8.50;;
71125;SDS011;58785;55.566;38.058;2022-08-01T04:20:51;13.50;;;7.75;;
71125;SDS011;58785;55.566;38.058;2022-08-01T04:23:17;14.80;;;8.23;;
71125;SDS011;58785;55.566;38.058;2022-08-01T04:25:48;15.60;;;8.93;;
71125;SDS011;58785;55.566;38.058;2022-08-01T04:28:15;23.60;;;8.60;;
71125;SDS011;58785;55.566;38.058;2022-08-01T04:30:42;13.45;;;8.18;;
71125;SDS011;58785;55.566;38.058;2022-08-01T04:33:11;15.57;;;7.90;;
71125;SDS011;58785;55.566;38.058;2022-08-01T04:35:43;16.23;;;7.85;;
71125;SDS011;58785;55.566;38.058;2022-08-01T04:38:12;11.18;;;7.63;;
71125;SDS011;58785;55.566;38.058;2022-08-01T04:40:42;11.80;;;7.95;;
71125;SDS011;58785;55.566;38.058;2022-08-01T04:43:12;13.27;;;7.88;;
71125;SDS011;58785;55.566;38.058;2022-08-01T04:45:38;14.93;;;7.47;;
71125;SDS011;58785;55.566;38.058;2022-08-01T04:48:05;13.60;;;8.38;;
71125;SDS011;58785;55.566;38.058;2022-08-01T04:50:32;12.60;;;8.23;;
71125;SDS011;58785;55.566;38.058;2022-08-01T04:52:57;15.18;;;8.73;;
71125;SDS011;58785;55.566;38.058;2022-08-01T04:55:23;13.93;;;8.00;;
71125;SDS011;58785;55.566;38.058;2022-08-01T04:57:49;15.43;;;7.85;;
71125;SDS011;58785;55.566;38.058;2022-08-01T05:00:15;9.32;;;5.97;;
71125;SDS011;58785;55.566;38.058;2022-08-01T05:02:43;11.40;;;5.90;;
71125;SDS011;58785;55.566;38.058;2022-08-01T05:05:12;10.33;;;6.70;;
71125;SDS011;58785;55.566;38.058;2022-08-01T05:07:38;14.32;;;7.40;;
71125;SDS011;58785;55.566;38.058;2022-08-01T05:10:04;13.10;;;7.35;;
71125;SDS011;58785;55.566;38.058;2022-08-01T05:12:30;11.77;;;7.03;;
71125;SDS011;58785;55.566;38.058;2022-08-01T05:14:57;11.43;;;6.07;;
71125;SDS011;58785;55.566;38.058;2022-08-01T05:17:29;13.23;;;6.50;;
71125;SDS011;58785;55.566;38.058;2022-08-01T05:19:59;8.30;;;5.63;;
71125;SDS011;58785;55.566;38.058;2022-08-01T05:22:24;8.40;;;4.70;;
71125;SDS011;58785;55.566;38.058;2022-08-01T05:24:52;10.73;;;4.65;;
71125;SDS011;58785;55.566;38.058;2022-08-01T05:27:18;8.47;;;4.60;;
71125;SDS011;58785;55.566;38.058;2022-08-01T05:29:44;12.60;;;5.00;;
71125;SDS011;58785;55.566;38.058;2022-08-01T05:32:10;9.23;;;5.47;;
71125;SDS011;58785;55.566;38.058;2022-08-01T05:34:36;7.57;;;3.85;;
71125;SDS011;58785;55.566;38.058;2022-08-01T05:37:01;6.77;;;4.10;;
71125;SDS011;58785;55.566;38.058;2022-08-01T05:39:27;7.30;;;4.18;;
71125;SDS011;58785;55.566;38.058;2022-08-01T05:41:53;11.07;;;4.63;;
71125;SDS011;58785;55.566;38.058;2022-08-01T05:44:19;7.90;;;4.30;;
71125;SDS011;58785;55.566;38.058;2022-08-01T05:46:44;7.30;;;3.90;;
71125;SDS011;58785;55.566;38.058;2022-08-01T05:49:11;9.23;;;4.23;;
71125;SDS011;58785;55.566;38.058;2022-08-01T05:51:37;10.20;;;3.95;;
71125;SDS011;58785;55.566;38.058;2022-08-01T05:54:02;7.83;;;3.63;;
71125;SDS011;58785;55.566;38.058;2022-08-01T05:56:28;6.70;;;3.47;;
71125;SDS011;58785;55.566;38.058;2022-08-01T05:58:53;7.07;;;4.20;;
71125;SDS011;58785;55.566;38.058;2022-08-01T06:01:19;10.05;;;4.13;;
71125;SDS011;58785;55.566;38.058;2022-08-01T06:03:45;7.82;;;3.80;;
71125;SDS011;58785;55.566;38.058;2022-08-01T06:06:11;9.20;;;4.40;;
71125;SDS011;58785;55.566;38.058;2022-08-01T06:08:37;7.88;;;3.90;;
71125;SDS011;58785;55.566;38.058;2022-08-01T06:11:02;9.97;;;3.87;;
71125;SDS011;58785;55.566;38.058;2022-08-01T06:13:28;8.63;;;4.15;;
71125;SDS011;58785;55.566;38.058;2022-08-01T06:15:54;7.30;;;3.83;;
71125;SDS011;58785;55.566;38.058;2022-08-01T06:18:20;5.57;;;2.90;;
71125;SDS011;58785;55.566;38.058;2022-08-01T06:20:45;5.45;;;3.40;;
71125;SDS011;58785;55.566;38.058;2022-08-01T06:23:11;5.93;;;3.20;;
71125;SDS011;58785;55.566;38.058;2022-08-01T06:25:38;9.65;;;3.35;;
71125;SDS011;58785;55.566;38.058;2022-08-01T06:28:04;5.63;;;3.38;;
71125;SDS011;58785;55.566;38.058;2022-08-01T06:30:30;6.13;;;3.30;;
71125;SDS011;58785;55.566;38.058;2022-08-01T06:32:55;6.57;;;3.20;;
71125;SDS011;58785;55.566;38.058;2022-08-01T06:35:23;5.60;;;3.20;;
71125;SDS011;58785;55.566;38.058;2022-08-01T06:37:49;6.57;;;3.10;;
71125;SDS011;58785;55.566;38.058;2022-08-01T06:40:15;5.80;;;2.90;;
71125;SDS011;58785;55.566;38.058;2022-08-01T06:42:40;5.10;;;3.00;;
71125;SDS011;58785;55.566;38.058;2022-08-01T06:45:07;5.05;;;2.65;;
71125;SDS011;58785;55.566;38.058;2022-08-01T06:47:35;8.15;;;3.30;;
71125;SDS011;58785;55.566;38.058;2022-08-01T06:50:01;4.90;;;2.70;;
71125;SDS011;58785;55.566;38.058;2022-08-01T06:52:28;6.13;;;3.10;;
71125;SDS011;58785;55.566;38.058;2022-08-01T06:54:54;4.82;;;2.40;;
71125;SDS011;58785;55.566;38.058;2022-08-01T06:57:19;5.33;;;3.20;;
71125;SDS011;58785;55.566;38.058;2022-08-01T06:59:45;6.55;;;3.28;;
71125;SDS011;58785;55.566;38.058;2022-08-01T07:02:11;5.83;;;2.90;;
71125;SDS011;58785;55.566;38.058;2022-08-01T07:04:36;5.80;;;2.75;;
71125;SDS011;58785;55.566;38.058;2022-08-01T07:07:02;6.60;;;3.10;;
71125;SDS011;58785;55.566;38.058;2022-08-01T07:09:28;5.07;;;2.63;;
71125;SDS011;58785;55.566;38.058;2022-08-01T07:11:53;7.03;;;3.33;;
71125;SDS011;58785;55.566;38.058;2022-08-01T07:14:20;5.43;;;3.10;;
71125;SDS011;58785;55.566;38.058;2022-08-01T07:16:46;5.80;;;2.72;;
71125;SDS011;58785;55.566;38.058;2022-08-01T07:19:12;5.85;;;2.90;;
71125;SDS011;58785;55.566;38.058;2022-08-01T07:21:37;6.37;;;2.60;;
71125;SDS011;58785;55.566;38.058;2022-08-01T07:24:04;5.68;;;2.65;;
71125;SDS011;58785;55.566;38.058;2022-08-01T07:26:35;6.03;;;2.60;;
71125;SDS011;58785;55.566;38.058;2022-08-01T07:29:01;5.13;;;2.50;;
71125;SDS011;58785;55.566;38.058;2022-08-01T07:31:27;6.30;;;2.53;;
71125;SDS011;58785;55.566;38.058;2022-08-01T07:33:53;6.25;;;2.85;;
71125;SDS011;58785;55.566;38.058;2022-08-01T07:36:19;6.57;;;2.63;;
71125;SDS011;58785;55.566;38.058;2022-08-01T07:38:45;5.10;;;2.70;;
71125;SDS011;58785;55.566;38.058;2022-08-01T07:41:13;6.13;;;2.50;;
71125;SDS011;58785;55.566;38.058;2022-08-01T07:43:39;7.30;;;2.70;;
71125;SDS011;58785;55.566;38.058;2022-08-01T07:46:05;6.10;;;2.47;;
71125;SDS011;58785;55.566;38.058;2022-08-01T07:48:31;5.88;;;2.90;;
71125;SDS011;58785;55.566;38.058;2022-08-01T07:50:57;5.93;;;2.90;;
71125;SDS011;58785;55.566;38.058;2022-08-01T07:53:23;5.20;;;2.83;;
71125;SDS011;58785;55.566;38.058;2022-08-01T07:55:48;6.00;;;3.13;;
71125;SDS011;58785;55.566;38.058;2022-08-01T07:58:14;5.17;;;3.00;;
71125;SDS011;58785;55.566;38.058;2022-08-01T08:00:41;6.65;;;2.50;;
71125;SDS011;58785;55.566;38.058;2022-08-01T08:03:11;7.28;;;2.75;;
71125;SDS011;58785;55.566;38.058;2022-08-01T08:05:36;5.17;;;3.00;;
71125;SDS011;58785;55.566;38.058;2022-08-01T08:08:05;6.47;;;2.90;;
71125;SDS011;58785;55.566;38.058;2022-08-01T08:10:32;7.53;;;2.53;;
71125;SDS011;58785;55.566;38.058;2022-08-01T08:12:58;6.35;;;2.15;;
71125;SDS011;58785;55.566;38.058;2022-08-01T08:15:24;5.73;;;2.57;;
71125;SDS011;58785;55.566;38.058;2022-08-01T08:17:49;5.63;;;2.95;;
71125;SDS011;58785;55.566;38.058;2022-08-01T08:20:15;7.13;;;2.30;;
71125;SDS011;58785;55.566;38.058;2022-08-01T08:22:41;6.10;;;2.75;;
71125;SDS011;58785;55.566;38.058;2022-08-01T08:25:07;6.73;;;2.27;;
71125;SDS011;58785;55.566;38.058;2022-08-01T08:27:33;5.03;;;2.50;;
71125;SDS011;58785;55.566;38.058;2022-08-01T08:30:00;6.93;;;3.00;;
71125;SDS011;58785;55.566;38.058;2022-08-01T08:32:26;5.93;;;2.75;;
71125;SDS011;58785;55.566;38.058;2022-08-01T08:34:51;5.00;;;2.90;;
71125;SDS011;58785;55.566;38.058;2022-08-01T08:37:17;5.35;;;3.03;;
71125;SDS011;58785;55.566;38.058;2022-08-01T08:39:43;4.93;;;2.60;;
71125;SDS011;58785;55.566;38.058;2022-08-01T08:42:12;6.15;;;2.53;;
71125;SDS011;58785;55.566;38.058;2022-08-01T08:44:40;5.65;;;2.50;;
71125;SDS011;58785;55.566;38.058;2022-08-01T08:47:06;7.65;;;2.83;;
71125;SDS011;58785;55.566;38.058;2022-08-01T08:49:33;6.93;;;3.08;;
71125;SDS011;58785;55.566;38.058;2022-08-01T08:52:00;7.30;;;2.88;;
71125;SDS011;58785;55.566;38.058;2022-08-01T08:54:27;5.60;;;2.60;;
71125;SDS011;58785;55.566;38.058;2022-08-01T08:56:54;5.33;;;2.67;;
71125;SDS011;58785;55.566;38.058;2022-08-01T08:59:20;5.75;;;2.50;;
71125;SDS011;58785;55.566;38.058;2022-08-01T09:01:49;6.88;;;3.13;;
71125;SDS011;58785;55.566;38.058;2022-08-01T09:04:15;7.88;;;2.85;;
71125;SDS011;58785;55.566;38.058;2022-08-01T09:06:41;5.45;;;2.22;;
71125;SDS011;58785;55.566;38.058;2022-08-01T09:09:07;5.40;;;2.83;;
71125;SDS011;58785;55.566;38.058;2022-08-01T09:11:34;6.25;;;2.58;;
71125;SDS011;58785;55.566;38.058;2022-08-01T09:14:01;5.85;;;2.67;;
71125;SDS011;58785;55.566;38.058;2022-08-01T09:16:29;6.07;;;2.72;;
71125;SDS011;58785;55.566;38.058;2022-08-01T09:19:06;4.78;;;2.45;;
71125;SDS011;58785;55.566;38.058;2022-08-01T09:21:36;6.25;;;2.80;;
71125;SDS011;58785;55.566;38.058;2022-08-01T09:24:02;4.70;;;2.65;;
71125;SDS011;58785;55.566;38.058;2022-08-01T09:26:34;4.53;;;1.90;;
71125;SDS011;58785;55.566;38.058;2022-08-01T09:29:08;4.72;;;2.00;;
71125;SDS011;58785;55.566;38.058;2022-08-01T09:31:43;5.23;;;2.30;;
71125;SDS011;58785;55.566;38.058;2022-08-01T09:34:10;5.80;;;2.80;;
71125;SDS011;58785;55.566;38.058;2022-08-01T09:39:17;4.90;;;2.30;;
71125;SDS011;58785;55.566;38.058;2022-08-01T09:41:44;5.55;;;2.65;;
71125;SDS011;58785;55.566;38.058;2022-08-01T09:44:11;5.50;;;2.67;;
71125;SDS011;58785;55.566;38.058;2022-08-01T09:46:48;5.78;;;2.80;;
71125;SDS011;58785;55.566;38.058;2022-08-01T09:49:26;5.25;;;2.30;;
71125;SDS011;58785;55.566;38.058;2022-08-01T09:51:53;4.25;;;1.90;;
71125;SDS011;58785;55.566;38.058;2022-08-01T09:54:32;4.80;;;2.30;;
71125;SDS011;58785;55.566;38.058;2022-08-01T09:57:12;5.28;;;2.47;;
71125;SDS011;58785;55.566;38.058;2022-08-01T09:59:40;5.05;;;2.60;;
71125;SDS011;58785;55.566;38.058;2022-08-01T10:02:09;6.90;;;3.17;;
71125;SDS011;58785;55.566;38.058;2022-08-01T10:04:45;6.95;;;2.75;;
71125;SDS011;58785;55.566;38.058;2022-08-01T10:07:12;8.80;;;2.75;;
71125;SDS011;58785;55.566;38.058;2022-08-01T10:09:41;5.63;;;2.90;;
71125;SDS011;58785;55.566;38.058;2022-08-01T10:12:08;4.73;;;2.43;;
71125;SDS011;58785;55.566;38.058;2022-08-01T10:14:34;6.22;;;3.10;;
71125;SDS011;58785;55.566;38.058;2022-08-01T10:17:02;4.72;;;2.50;;
71125;SDS011;58785;55.566;38.058;2022-08-01T10:19:31;7.65;;;2.03;;
71125;SDS011;58785;55.566;38.058;2022-08-01T10:21:59;5.43;;;2.15;;
71125;SDS011;58785;55.566;38.058;2022-08-01T10:24:26;4.88;;;2.10;;
71125;SDS011;58785;55.566;38.058;2022-08-01T10:26:58;6.80;;;2.90;;
71125;SDS011;58785;55.566;38.058;2022-08-01T10:30:12;5.45;;;2.83;;
71125;SDS011;58785;55.566;38.058;2022-08-01T10:32:30;4.80;;;2.50;;
71125;SDS011;58785;55.566;38.058;2022-08-01T10:34:57;5.53;;;2.93;;
71125;SDS011;58785;55.566;38.058;2022-08-01T10:37:24;7.60;;;2.58;;
71125;SDS011;58785;55.566;38.058;2022-08-01T10:39:53;6.43;;;2.47;;
71125;SDS011;58785;55.566;38.058;2022-08-01T10:42:22;5.35;;;2.80;;
71125;SDS011;58785;55.566;38.058;2022-08-01T10:44:48;6.63;;;3.28;;
71125;SDS011;58785;55.566;38.058;2022-08-01T10:47:18;5.38;;;2.75;;
71125;SDS011;58785;55.566;38.058;2022-08-01T10:52:41;5.60;;;2.88;;
71125;SDS011;58785;55.566;38.058;2022-08-01T10:55:07;5.43;;;2.43;;
71125;SDS011;58785;55.566;38.058;2022-08-01T10:57:43;5.60;;;2.22;;
71125;SDS011;58785;55.566;38.058;2022-08-01T11:00:21;4.93;;;2.38;;
71125;SDS011;58785;55.566;38.058;2022-08-01T11:02:57;6.13;;;2.45;;
71125;SDS011;58785;55.566;38.058;2022-08-01T11:05:30;8.88;;;2.90;;
71125;SDS011;58785;55.566;38.058;2022-08-01T11:07:58;5.63;;;2.92;;
71125;SDS011;58785;55.566;38.058;2022-08-01T11:10:37;4.70;;;2.20;;
71125;SDS011;58785;55.566;38.058;2022-08-01T11:13:10;6.40;;;3.20;;
71125;SDS011;58785;55.566;38.058;2022-08-01T11:15:39;8.95;;;2.83;;
71125;SDS011;58785;55.566;38.058;2022-08-01T11:21:15;5.55;;;2.63;;
71125;SDS011;58785;55.566;38.058;2022-08-01T11:23:47;5.10;;;2.17;;
71125;SDS011;58785;55.566;38.058;2022-08-01T11:26:14;5.23;;;2.70;;
71125;SDS011;58785;55.566;38.058;2022-08-01T11:28:42;5.33;;;2.50;;
71125;SDS011;58785;55.566;38.058;2022-08-01T11:38:36;7.70;;;2.97;;
71125;SDS011;58785;55.566;38.058;2022-08-01T11:43:58;6.63;;;2.58;;
71125;SDS011;58785;55.566;38.058;2022-08-01T11:49:24;5.03;;;2.78;;
71125;SDS011;58785;55.566;38.058;2022-08-01T11:52:03;6.07;;;3.13;;
71125;SDS011;58785;55.566;38.058;2022-08-01T11:54:30;5.47;;;3.10;;
71125;SDS011;58785;55.566;38.058;2022-08-01T11:57:18;4.72;;;2.55;;
71125;SDS011;58785;55.566;38.058;2022-08-01T11:59:46;7.50;;;2.45;;
71125;SDS011;58785;55.566;38.058;2022-08-01T12:02:36;5.38;;;2.53;;
71125;SDS011;58785;55.566;38.058;2022-08-01T12:05:02;5.15;;;2.88;;
71125;SDS011;58785;55.566;38.058;2022-08-01T12:07:29;6.70;;;3.40;;
71125;SDS011;58785;55.566;38.058;2022-08-01T12:10:07;7.82;;;2.90;;
71125;SDS011;58785;55.566;38.058;2022-08-01T12:12:43;5.53;;;2.50;;
71125;SDS011;58785;55.566;38.058;2022-08-01T12:15:10;5.67;;;3.03;;
71125;SDS011;58785;55.566;38.058;2022-08-01T12:17:37;7.50;;;3.00;;
71125;SDS011;58785;55.566;38.058;2022-08-01T12:20:07;5.75;;;3.08;;
71125;SDS011;58785;55.566;38.058;2022-08-01T12:22:34;7.50;;;3.13;;
71125;SDS011;58785;55.566;38.058;2022-08-01T12:27:34;5.95;;;3.35;;
71125;SDS011;58785;55.566;38.058;2022-08-01T12:30:01;5.73;;;2.90;;
71125;SDS011;58785;55.566;38.058;2022-08-01T12:32:31;7.27;;;3.00;;
71125;SDS011;58785;55.566;38.058;2022-08-01T12:35:08;5.38;;;2.70;;
71125;SDS011;58785;55.566;38.058;2022-08-01T12:37:40;6.03;;;2.90;;
71125;SDS011;58785;55.566;38.058;2022-08-01T12:40:15;5.35;;;2.67;;
71125;SDS011;58785;55.566;38.058;2022-08-01T12:42:42;6.60;;;2.97;;
71125;SDS011;58785;55.566;38.058;2022-08-01T12:45:09;5.97;;;2.85;;
71125;SDS011;58785;55.566;38.058;2022-08-01T12:47:37;5.15;;;2.78;;
71125;SDS011;58785;55.566;38.058;2022-08-01T12:50:08;5.47;;;2.97;;
71125;SDS011;58785;55.566;38.058;2022-08-01T12:52:37;6.32;;;2.72;;
71125;SDS011;58785;55.566;38.058;2022-08-01T12:57:30;6.03;;;3.00;;
71125;SDS011;58785;55.566;38.058;2022-08-01T13:00:07;7.78;;;3.03;;
71125;SDS011;58785;55.566;38.058;2022-08-01T13:02:35;7.45;;;2.97;;
71125;SDS011;58785;55.566;38.058;2022-08-01T13:05:01;6.25;;;3.10;;
71125;SDS011;58785;55.566;38.058;2022-08-01T13:10:14;5.00;;;3.00;;
71125;SDS011;58785;55.566;38.058;2022-08-01T13:12:54;4.90;;;3.10;;
71125;SDS011;58785;55.566;38.058;2022-08-01T13:17:49;5.10;;;2.60;;
71125;SDS011;58785;55.566;38.058;2022-08-01T13:20:22;5.10;;;2.97;;
71125;SDS011;58785;55.566;38.058;2022-08-01T13:23:15;5.43;;;3.10;;
71125;SDS011;58785;55.566;38.058;2022-08-01T13:25:50;6.90;;;3.47;;
71125;SDS011;58785;55.566;38.058;2022-08-01T13:28:24;8.18;;;4.00;;
71125;SDS011;58785;55.566;38.058;2022-08-01T13:30:58;6.53;;;2.78;;
71125;SDS011;58785;55.566;38.058;2022-08-01T13:33:26;7.07;;;3.15;;
71125;SDS011;58785;55.566;38.058;2022-08-01T13:35:54;6.32;;;3.22;;
71125;SDS011;58785;55.566;38.058;2022-08-01T13:38:22;7.00;;;2.97;;
71125;SDS011;58785;55.566;38.058;2022-08-01T13:41:07;6.37;;;3.43;;
71125;SDS011;58785;55.566;38.058;2022-08-01T13:43:33;6.68;;;3.05;;
71125;SDS011;58785;55.566;38.058;2022-08-01T13:46:00;5.80;;;3.15;;
71125;SDS011;58785;55.566;38.058;2022-08-01T13:48:27;6.15;;;3.13;;
71125;SDS011;58785;55.566;38.058;2022-08-01T13:50:53;6.97;;;3.00;;
71125;SDS011;58785;55.566;38.058;2022-08-01T13:53:19;7.33;;;2.50;;
71125;SDS011;58785;55.566;38.058;2022-08-01T13:55:44;9.40;;;2.87;;
71125;SDS011;58785;55.566;38.058;2022-08-01T13:58:10;6.20;;;2.93;;
71125;SDS011;58785;55.566;38.058;2022-08-01T14:00:35;5.57;;;2.87;;
71125;SDS011;58785;55.566;38.058;2022-08-01T14:03:01;10.40;;;2.70;;
71125;SDS011;58785;55.566;38.058;2022-08-01T14:05:27;6.83;;;2.83;;
71125;SDS011;58785;55.566;38.058;2022-08-01T14:07:52;6.82;;;2.83;;
71125;SDS011;58785;55.566;38.058;2022-08-01T14:10:18;6.00;;;2.80;;
71125;SDS011;58785;55.566;38.058;2022-08-01T14:12:43;6.27;;;2.80;;
71125;SDS011;58785;55.566;38.058;2022-08-01T14:15:09;7.55;;;2.92;;
71125;SDS011;58785;55.566;38.058;2022-08-01T14:17:37;5.60;;;2.97;;
71125;SDS011;58785;55.566;38.058;2022-08-01T14:20:03;5.73;;;2.90;;
71125;SDS011;58785;55.566;38.058;2022-08-01T14:22:31;5.82;;;2.90;;
71125;SDS011;58785;55.566;38.058;2022-08-01T14:24:56;7.22;;;3.15;;
71125;SDS011;58785;55.566;38.058;2022-08-01T14:27:22;5.60;;;3.20;;
71125;SDS011;58785;55.566;38.058;2022-08-01T14:29:47;5.50;;;3.37;;
71125;SDS011;58785;55.566;38.058;2022-08-01T14:32:13;6.25;;;3.25;;
71125;SDS011;58785;55.566;38.058;2022-08-01T14:34:38;5.77;;;2.80;;
71125;SDS011;58785;55.566;38.058;2022-08-01T14:37:04;5.22;;;2.70;;
71125;SDS011;58785;55.566;38.058;2022-08-01T14:39:30;8.00;;;2.90;;
71125;SDS011;58785;55.566;38.058;2022-08-01T14:41:55;6.00;;;2.90;;
71125;SDS011;58785;55.566;38.058;2022-08-01T14:44:21;5.20;;;2.70;;
71125;SDS011;58785;55.566;38.058;2022-08-01T14:46:46;6.07;;;2.57;;
71125;SDS011;58785;55.566;38.058;2022-08-01T14:49:13;7.28;;;2.80;;
71125;SDS011;58785;55.566;38.058;2022-08-01T14:51:39;8.70;;;2.20;;
71125;SDS011;58785;55.566;38.058;2022-08-01T14:54:05;6.90;;;2.80;;
71125;SDS011;58785;55.566;38.058;2022-08-01T14:56:30;6.37;;;3.00;;
71125;SDS011;58785;55.566;38.058;2022-08-01T14:58:56;5.63;;;3.47;;
71125;SDS011;58785;55.566;38.058;2022-08-01T15:01:21;5.43;;;3.10;;
71125;SDS011;58785;55.566;38.058;2022-08-01T15:03:47;5.40;;;2.60;;
71125;SDS011;58785;55.566;38.058;2022-08-01T15:06:15;8.80;;;4.20;;
71125;SDS011;58785;55.566;38.058;2022-08-01T15:08:40;7.93;;;3.50;;
71125;SDS011;58785;55.566;38.058;2022-08-01T15:11:06;7.83;;;3.60;;
71125;SDS011;58785;55.566;38.058;2022-08-01T15:13:33;8.07;;;3.43;;
71125;SDS011;58785;55.566;38.058;2022-08-01T15:15:59;11.43;;;3.90;;
71125;SDS011;58785;55.566;38.058;2022-08-01T15:18:25;6.82;;;3.10;;
71125;SDS011;58785;55.566;38.058;2022-08-01T15:20:51;7.57;;;3.50;;